Weather at Dombås Heliport, Brunshaugen

Public forecast

Using degrees Celsius for public forecast. Weather courtesy of forecast.io.

Closest aviation weather report (METAR) to Dombås Heliport, Brunshaugen

Closest report is Molde Airport, Årø, 65.7 nm (121.7 km) NW.

2024/05/20 05:20 (retrieved 34 minutes ago)

ENML 200520Z AUTO 05007KT 9999NDV NCD 08/03 Q1020

Closest aviation forecast (TAF) to Dombås Heliport, Brunshaugen

Forecast is more than 6 hours old.

Closest forecast is Oslo Airport, Gardermoen, 126.3 nm (234.0 km) SSE.

2024/05/19 18:00 Correction (retrieved 12 hours ago)

TAF COR ENGM 191700Z 1918/2018 04010KT CAVOK BECMG 2012/2014 17008KT